TFM - Tactical Decision Aid
ID: Runway Winds: CIG/VIS Threshold:

KMDW - Chicago/Midway Intl, IL, US

Updated at: 2032 UTC 08 Aug 2020
Latest TAF at: 1738 UTC 08 Aug 2020

TAF Board

Time<<09/09Z 09/10Z 09/11Z 09/12Z 09/13Z 09/14Z 09/15Z 09/16Z 09/17Z 09/18Z 09/19Z 09/20Z 09/21Z>>
Type PRVL PRVL PRVL PRVL PRVL PRVL PRVL PRVL PRVL PRVL PRVL PRVL PRVL
VIS >6 >6 >6 >6 >6 >6 >6 >6 >6 >6 >6 >6 >6
CIG -- -- -- -- -- -- -- -- -- -- -- -- --
Cover SCT SCT SCT SCT SCT SCT SCT SCT SCT SCT SCT SCT SCT
FltCat VFR VFR VFR VFR VFR VFR VFR VFR VFR VFR VFR VFR VFR
WX -- -- -- -- -- -- -- -- -- -- -- -- --
WDir 180 180 180 180 180 180 180 180 200 200 200 200 200
WSpd 7 7 7 7 7 7 7 7 10 10 10 10 10
WGst -- -- -- -- -- -- -- -- 15 15 15 15 15

TDA Impact Legend

  None Marginal Slight Moderate High
Visibility (sm) >5 3≤X≤5 2≤X<3 0.75≤X<2 <0.75
Ceiling (100 ft) >30 10≤X≤30 6≤X<10 3≤X<6 <3
Wind Speed (kt) <15 15≤X<25 25≤X<30 ≥30
Wind Gust (kt) <15 15≤X<25 25≤X<35 ≥35
Weather No Wx Reported VCTS -TS,-FZRA TS,FZRA +TS,+FZRA
TAF
KMDW 081738Z 0818/0924 20012G20KT P6SM SCT050
  FM090200 18007KT P6SM SCT050
  FM091700 20010G15KT P6SM SCT250


Radar Display
Forecast Discussion